Craigville, Indiana
Current Conditions -  °F | °C
As of 5:54 PM on Thursday 23 Oct 2014 (Local Time) from KFWA Reporting Station
Broken Clouds Broken Clouds  
Wind Chill: 55°   Ceiling: 15000
Heat Index: 55°   Visibility: 9mi
Dew Point: 41°   Wind: 0mph
Humidity: 59%   Direction: NA
Pressure: 30.14"   Gusts: NA
Location:  40.78°N, 85.09°W
Report Text: KFWA 232154Z 00000KT 9SM BKN150 BKN250 13/05 A3014 RMK AO2 SLP210 T01280050
Loading
Personal Weather Stations






























Interactive Weather Map
Tropical Storm Tracking
New forecast layout! Learn more

10-Day Weather Forecast

Advertisements
Track Severe Weather on mobile